Terminal Aerodrome Forecast
Issued by NWS Lake Charles, LA

Home | Current Version | Previous Version | Text Only | Print | Product List | Glossary On
Versions: 1 2 3 4 5 6 7 8 9 10 11 12 13 14 15 16 17 18
000
FTUS44 KLCH 311100
TAFBPT
TAF
KBPT 311122Z 3112/0112 18005KT P6SM BKN250
     FM311600 17007KT P6SM VCSH SCT040
     FM312000 17006KT P6SM VCTS BKN035CB
     FM010000 12004KT P6SM SCT030 PROB30 0100/0104 5SM TSRA
      BKN035CB=

USA.gov is the U.S. government's official web portal to all federal, state and local government web resources and services.